MSC Bremen — A8LK7 — position and weather

sailwx.info

Track history (hours):
 
Tides and Currents Weather Stations Pressure Air Temp Water Temp Dewpoint Dewpoint Depression Visibility Wind Speed Wind Dir Waves Ship Positions

MSC Bremen

Last reported at 2014-Sep-14 08:03 UTC. Time now 2014-Sep-20 22:10 UTC.
Position S 12°57' W 038°31'.

Length 294 m; ; draft 13.7 m.

Type: Ship (hazmat cat A). MMSI: 636091270.

Date/timePositionNaut miles runAvg speedWind from/ knotsBaromVisibWave heightAir tempDewpointWater temp
2014-Sep-14 08:03S 12°57' W 038°31'0 0.4
2014-Sep-14 07:33S 12°57' W 038°30'3 2.5
2014-Sep-14 06:33S 12°58' W 038°33'9 9.0
2014-Sep-14 05:32S 13°06' W 038°37'0 0.1
2014-Sep-14 04:29S 13°06' W 038°37'0 0.0
2014-Sep-14 03:32S 13°06' W 038°37'0 0.0
2014-Sep-14 02:32S 13°06' W 038°37'0 0.0
2014-Sep-14 01:32S 13°06' W 038°37'0 0.0
2014-Sep-13 21:32S 13°06' W 038°37'0 0.0
2014-Sep-13 20:32S 13°06' W 038°37'0 0.0
2014-Sep-13 19:32S 13°06' W 038°37'0 0.0
2014-Sep-13 18:32S 13°06' W 038°37'0 0.1
2014-Sep-13 17:32S 13°06' W 038°37'0 0.0
2014-Sep-13 16:29S 13°06' W 038°37'0 0.0
2014-Sep-13 15:32S 13°06' W 038°37'0 0.0
2014-Sep-13 14:32S 13°06' W 038°37'0 0.1
2014-Sep-13 13:32S 13°07' W 038°37'0 0.0
2014-Sep-13 12:32S 13°07' W 038°37'0 0.0
2014-Sep-13 11:32S 13°06' W 038°37'0 0.1
2014-Sep-13 10:32S 13°06' W 038°37'0 0.0
2014-Sep-13 09:32S 13°06' W 038°37'0 0.0
2014-Sep-13 08:32S 13°06' W 038°37'0 0.0
2014-Sep-13 07:32S 13°06' W 038°37'0 0.0
2014-Sep-13 06:32S 13°06' W 038°37'0 0.0
2014-Sep-13 05:32S 13°06' W 038°37'1 1.4
2014-Sep-13 04:33S 13°08' W 038°37'62115.5
2014-Sep-11 12:33S 23°01' W 041°50'2217.6
2014-Sep-11 11:18S 23°13' W 042°10'  
Track history (hours):
 
Tides and Currents Weather Stations Pressure Air Temp Water Temp Dewpoint Dewpoint Depression Visibility Wind Speed Wind Dir Waves Ship Positions

MSC Bremen

Last reported at 2014-Sep-14 08:03 UTC. Time now 2014-Sep-20 22:10 UTC.
Position S 12°57' W 038°31'.

Length 294 m; ; draft 13.7 m.

Type: Ship (hazmat cat A). MMSI: 636091270.

Date/timePositionNaut miles runAvg speedWind from/ knotsBaromVisibWave heightAir tempDewpointWater temp
2014-Sep-14 08:03S 12°57' W 038°31'0 0.4
2014-Sep-14 07:33S 12°57' W 038°30'3 2.5
2014-Sep-14 06:33S 12°58' W 038°33'9 9.0
2014-Sep-14 05:32S 13°06' W 038°37'0 0.1
2014-Sep-14 04:29S 13°06' W 038°37'0 0.0
2014-Sep-14 03:32S 13°06' W 038°37'0 0.0
2014-Sep-14 02:32S 13°06' W 038°37'0 0.0
2014-Sep-14 01:32S 13°06' W 038°37'0 0.0
2014-Sep-13 21:32S 13°06' W 038°37'0 0.0
2014-Sep-13 20:32S 13°06' W 038°37'0 0.0
2014-Sep-13 19:32S 13°06' W 038°37'0 0.0
2014-Sep-13 18:32S 13°06' W 038°37'0 0.1
2014-Sep-13 17:32S 13°06' W 038°37'0 0.0
2014-Sep-13 16:29S 13°06' W 038°37'0 0.0
2014-Sep-13 15:32S 13°06' W 038°37'0 0.0
2014-Sep-13 14:32S 13°06' W 038°37'0 0.1
2014-Sep-13 13:32S 13°07' W 038°37'0 0.0
2014-Sep-13 12:32S 13°07' W 038°37'0 0.0
2014-Sep-13 11:32S 13°06' W 038°37'0 0.1
2014-Sep-13 10:32S 13°06' W 038°37'0 0.0
2014-Sep-13 09:32S 13°06' W 038°37'0 0.0
2014-Sep-13 08:32S 13°06' W 038°37'0 0.0
2014-Sep-13 07:32S 13°06' W 038°37'0 0.0
2014-Sep-13 06:32S 13°06' W 038°37'0 0.0
2014-Sep-13 05:32S 13°06' W 038°37'1 1.4
2014-Sep-13 04:33S 13°08' W 038°37'62115.5
2014-Sep-11 12:33S 23°01' W 041°50'2217.6
2014-Sep-11 11:18S 23°13' W 042°10'  

Dump ship's entire track history